createdAt,value
2024-02-24T00:00:11.904Z,1.25
2024-02-24T00:05:15.974Z,1.40
2024-02-24T00:10:18.011Z,1.10
2024-02-24T00:15:20.006Z,1.65
2024-02-24T00:20:22.082Z,1.30
2024-02-24T00:25:24.126Z,1.60
2024-02-24T00:30:26.036Z,1.80
2024-02-24T00:35:30.306Z,1.58
2024-02-24T00:40:32.363Z,1.80
2024-02-24T00:45:34.543Z,1.35
2024-02-24T00:50:36.610Z,1.67
2024-02-24T00:55:38.756Z,2.15
2024-02-24T01:00:40.763Z,2.15
2024-02-24T01:05:43.742Z,1.67
2024-02-24T01:10:45.962Z,1.73
2024-02-24T01:15:47.961Z,2.00
2024-02-24T01:20:50.210Z,1.83
2024-02-24T01:25:52.417Z,1.70
2024-02-24T01:30:54.481Z,1.50
2024-02-24T01:35:56.662Z,1.30
2024-02-24T01:40:58.633Z,1.27
2024-02-24T01:46:01.386Z,1.45
2024-02-24T01:51:04.105Z,1.42
2024-02-24T01:56:10.562Z,1.48
2024-02-24T02:01:13.077Z,1.35
2024-02-24T02:06:15.554Z,1.33
2024-02-24T02:11:17.954Z,1.42
2024-02-24T02:16:20.725Z,1.77
2024-02-24T02:21:23.485Z,1.63
2024-02-24T02:26:25.571Z,1.48
2024-02-24T02:31:27.598Z,1.73
2024-02-24T02:36:29.535Z,1.60
2024-02-24T02:41:31.579Z,1.58
2024-02-24T02:46:33.658Z,1.75
2024-02-24T02:51:35.660Z,1.75
2024-02-24T02:56:37.702Z,1.35
2024-02-24T03:01:39.682Z,1.30
2024-02-24T03:06:41.742Z,1.08
2024-02-24T03:11:45.728Z,1.80
2024-02-24T03:16:49.656Z,1.75
2024-02-24T03:21:51.668Z,1.52
2024-02-24T03:26:53.752Z,1.90
2024-02-24T03:31:55.744Z,1.30
2024-02-24T03:36:57.672Z,1.35
2024-02-24T03:41:59.634Z,1.58
2024-02-24T03:47:01.762Z,2.08
2024-02-24T03:52:03.873Z,1.25
2024-02-24T03:57:06.071Z,1.88
2024-02-24T04:02:08.061Z,1.75
2024-02-24T04:07:10.124Z,1.60
2024-02-24T04:12:12.160Z,1.80
2024-02-24T04:17:14.297Z,1.73
2024-02-24T04:22:16.277Z,1.80
2024-02-24T04:27:18.289Z,2.03
2024-02-24T04:32:20.311Z,1.90
2024-02-24T04:37:23.529Z,1.70
2024-02-24T04:42:26.057Z,2.25
2024-02-24T04:47:29.954Z,1.67
2024-02-24T04:52:32.142Z,1.67
2024-02-24T04:57:34.149Z,2.22
2024-02-24T05:02:36.151Z,1.52
2024-02-24T05:07:38.443Z,2.05
2024-02-24T05:12:49.256Z,1.98
2024-02-24T05:17:51.616Z,2.22
2024-02-24T05:22:53.702Z,2.13
2024-02-24T05:27:55.749Z,2.03
2024-02-24T05:32:59.073Z,2.20
2024-02-24T05:38:01.465Z,2.08
2024-02-24T05:43:04.520Z,2.05
2024-02-24T05:48:06.787Z,2.22
2024-02-24T05:53:10.839Z,1.80
2024-02-24T05:58:14.041Z,1.92
2024-02-24T06:03:16.063Z,2.00
2024-02-24T06:08:18.227Z,2.25
2024-02-24T06:13:20.248Z,2.38
2024-02-24T06:18:22.720Z,2.15
2024-02-24T06:23:24.834Z,2.40
2024-02-24T06:28:26.849Z,2.47
2024-02-24T06:33:28.858Z,2.40
2024-02-24T06:38:30.903Z,2.45
2024-02-24T06:43:32.885Z,2.55
2024-02-24T06:48:34.957Z,2.55
2024-02-24T06:53:37.007Z,2.90
2024-02-24T06:58:39.206Z,2.75
2024-02-24T07:03:41.256Z,3.92
2024-02-24T07:08:43.713Z,3.90
2024-02-24T07:13:45.783Z,4.65
2024-02-24T07:18:47.841Z,3.10
2024-02-24T07:23:51.622Z,4.85
2024-02-24T07:28:53.704Z,3.30
2024-02-24T07:33:56.136Z,2.17
2024-02-24T07:38:58.822Z,2.65
2024-02-24T07:44:00.985Z,2.80
2024-02-24T07:49:03.433Z,2.88
2024-02-24T07:54:05.545Z,3.20
2024-02-24T07:59:07.538Z,2.60
2024-02-24T08:04:09.657Z,3.90
2024-02-24T08:09:14.720Z,2.15
2024-02-24T08:14:17.107Z,3.25
2024-02-24T08:19:19.092Z,3.00
2024-02-24T08:24:21.141Z,2.65
2024-02-24T08:29:23.154Z,2.38
2024-02-24T08:34:25.575Z,2.50
2024-02-24T08:39:27.689Z,2.92
2024-02-24T08:44:29.929Z,2.28
2024-02-24T08:49:32.053Z,2.33
2024-02-24T08:54:34.482Z,2.10
2024-02-24T08:59:36.552Z,1.67
2024-02-24T09:04:41.744Z,1.90
2024-02-24T09:09:43.754Z,2.92
2024-02-24T09:14:45.771Z,2.03
2024-02-24T09:19:47.901Z,3.03
2024-02-24T09:24:50.173Z,2.70
2024-02-24T09:29:52.230Z,2.30
2024-02-24T09:34:54.546Z,2.30
2024-02-24T09:39:56.564Z,2.28
2024-02-24T09:45:00.650Z,2.33
2024-02-24T09:50:02.945Z,2.33
2024-02-24T09:55:08.337Z,2.20
2024-02-24T10:00:10.965Z,1.83
2024-02-24T10:05:17.983Z,1.85
2024-02-24T10:10:20.243Z,2.00
2024-02-24T10:15:22.277Z,2.30
2024-02-24T10:20:24.811Z,1.83
2024-02-24T10:25:27.012Z,2.78
2024-02-24T10:30:29.358Z,2.28
2024-02-24T10:35:34.766Z,1.83
2024-02-24T10:40:37.699Z,1.85
2024-02-24T10:45:39.697Z,2.55
2024-02-24T10:50:42.598Z,2.33
2024-02-24T10:55:45.878Z,2.50
2024-02-24T11:00:52.298Z,2.67
2024-02-24T11:05:54.606Z,2.80
2024-02-24T11:11:04.679Z,2.65
2024-02-24T11:16:07.369Z,2.55
2024-02-24T11:21:09.374Z,2.10
2024-02-24T11:26:17.552Z,2.42
2024-02-24T11:31:42.597Z,2.03
2024-02-24T11:36:45.298Z,2.28
2024-02-24T11:41:48.303Z,2.88
2024-02-24T11:46:50.513Z,1.83
2024-02-24T11:51:52.882Z,2.92
2024-02-24T11:56:55.116Z,2.55
2024-02-24T12:01:57.212Z,2.55
2024-02-24T12:07:00.265Z,3.08
2024-02-24T12:12:02.674Z,3.08
2024-02-24T12:17:05.052Z,2.90
2024-02-24T12:22:10.601Z,2.80
2024-02-24T12:27:13.163Z,2.60
2024-02-24T12:32:15.607Z,3.15
2024-02-24T12:37:17.728Z,2.58
2024-02-24T12:42:19.899Z,2.63
2024-02-24T12:47:22.426Z,2.40
2024-02-24T12:52:24.765Z,2.10
2024-02-24T12:57:27.069Z,2.20
2024-02-24T13:02:30.326Z,2.22
2024-02-24T13:07:32.750Z,2.28
2024-02-24T13:12:35.163Z,2.78
2024-02-24T13:17:37.472Z,2.95
2024-02-24T13:22:42.552Z,4.70
2024-02-24T13:27:45.633Z,3.10
2024-02-24T13:32:48.067Z,3.63
2024-02-24T13:37:50.098Z,4.60
2024-02-24T13:42:52.926Z,4.45
2024-02-24T13:47:55.470Z,4.75
2024-02-24T13:52:57.669Z,3.78
2024-02-24T13:58:04.404Z,5.20
2024-02-24T14:03:09.552Z,5.07
2024-02-24T14:08:39.578Z,4.00
2024-02-24T14:13:44.777Z,4.70
2024-02-24T14:18:47.258Z,0.90
2024-02-24T14:23:49.624Z,0.90
2024-02-24T14:29:00.830Z,0.80
2024-02-24T14:34:04.488Z,0.90
2024-02-24T14:39:07.175Z,0.55
2024-02-24T14:44:09.306Z,1.42
2024-02-24T14:49:12.334Z,1.75
2024-02-24T14:54:14.496Z,1.10
2024-02-24T14:59:16.723Z,0.63
2024-02-24T15:04:21.581Z,0.60
2024-02-24T15:09:23.754Z,0.75
2024-02-24T15:14:26.305Z,1.08
2024-02-24T15:19:28.500Z,1.40
2024-02-24T15:24:30.472Z,1.23
2024-02-24T15:29:32.579Z,1.10
2024-02-24T15:34:34.988Z,1.40
2024-02-24T15:39:37.122Z,1.55
2024-02-24T15:44:39.324Z,1.60
2024-02-24T15:49:41.660Z,1.60
2024-02-24T15:54:43.963Z,1.92
2024-02-24T15:59:46.124Z,2.33
2024-02-24T16:04:49.680Z,2.00
2024-02-24T16:09:51.835Z,2.47
2024-02-24T16:14:54.279Z,2.30
2024-02-24T16:19:57.104Z,2.13
2024-02-24T16:24:59.425Z,3.67
2024-02-24T16:30:01.787Z,1.55
2024-02-24T16:35:04.384Z,1.98
2024-02-24T16:40:10.799Z,2.05
2024-02-24T16:45:13.002Z,1.45
2024-02-24T16:50:19.369Z,1.55
2024-02-24T16:55:25.701Z,1.55
2024-02-24T17:00:27.748Z,2.20
2024-02-24T17:05:29.900Z,1.50
2024-02-24T17:10:34.007Z,1.60
2024-02-24T17:15:36.350Z,1.80
2024-02-24T17:20:38.513Z,2.05
2024-02-24T17:25:40.660Z,2.55
2024-02-24T17:30:42.715Z,1.65
2024-02-24T17:35:46.318Z,1.70
2024-02-24T17:40:48.610Z,1.58
2024-02-24T17:45:50.767Z,1.90
2024-02-24T17:50:53.362Z,2.22
2024-02-24T17:55:55.504Z,1.77
2024-02-24T18:00:57.712Z,1.95
2024-02-24T18:05:59.924Z,2.17
2024-02-24T18:11:01.993Z,1.88
2024-02-24T18:16:06.512Z,2.13
2024-02-24T18:21:15.432Z,2.45
2024-02-24T18:26:17.681Z,2.72
2024-02-24T18:31:19.780Z,2.45
2024-02-24T18:36:22.314Z,2.40
2024-02-24T18:41:24.427Z,3.15
2024-02-24T18:46:26.494Z,2.90
2024-02-24T18:51:29.189Z,3.42
2024-02-24T18:56:31.317Z,2.78
2024-02-24T19:01:33.950Z,2.97
2024-02-24T19:06:36.235Z,3.60
2024-02-24T19:11:38.861Z,4.65
2024-02-24T19:16:40.921Z,5.00
2024-02-24T19:21:43.307Z,3.85
2024-02-24T19:26:54.341Z,4.50
2024-02-24T19:31:56.424Z,3.72
2024-02-24T19:36:58.544Z,3.33
2024-02-24T19:42:00.785Z,2.67
2024-02-24T19:47:05.941Z,2.55
2024-02-24T19:52:08.211Z,2.22
2024-02-24T19:57:10.448Z,2.83
2024-02-24T20:02:12.597Z,2.92
2024-02-24T20:07:15.366Z,2.88
2024-02-24T20:12:21.492Z,3.28
2024-02-24T20:17:25.141Z,2.70
2024-02-24T20:22:27.288Z,2.63
2024-02-24T20:27:29.444Z,3.10
2024-02-24T20:32:31.531Z,2.72
2024-02-24T20:37:34.618Z,2.30
2024-02-24T20:42:36.704Z,1.85
2024-02-24T20:47:38.985Z,2.88
2024-02-24T20:52:41.455Z,3.40
2024-02-24T20:57:43.433Z,3.53
2024-02-24T21:02:45.621Z,3.42
2024-02-24T21:07:47.664Z,3.83
2024-02-24T21:12:49.629Z,4.20
2024-02-24T21:17:51.879Z,3.58
2024-02-24T21:22:54.075Z,4.10
2024-02-24T21:27:57.128Z,3.42
2024-02-24T21:32:59.823Z,3.63
2024-02-24T21:38:03.053Z,4.32
2024-02-24T21:43:06.015Z,3.28
2024-02-24T21:48:08.824Z,3.45
2024-02-24T21:53:10.989Z,3.70
2024-02-24T21:58:12.968Z,3.53
2024-02-24T22:03:15.095Z,2.78
2024-02-24T22:08:20.196Z,2.72
2024-02-24T22:18:24.892Z,2.85
2024-02-24T22:23:27.396Z,3.80
2024-02-24T22:28:29.448Z,3.13
2024-02-24T22:33:34.182Z,4.88
2024-02-24T22:38:36.879Z,5.18
2024-02-24T22:43:39.276Z,4.45
2024-02-24T22:48:41.835Z,3.28
2024-02-24T22:53:44.138Z,6.50
2024-02-24T22:58:46.853Z,4.70
2024-02-24T23:03:48.974Z,3.72
2024-02-24T23:08:51.082Z,3.92
2024-02-24T23:13:57.685Z,3.05
2024-02-24T23:19:00.224Z,4.10
2024-02-24T23:24:06.463Z,3.42
2024-02-24T23:29:13.624Z,3.92
2024-02-24T23:34:15.871Z,5.38
2024-02-24T23:39:30.954Z,4.07
2024-02-24T23:44:33.170Z,5.97
2024-02-24T23:49:35.223Z,4.85
2024-02-24T23:54:37.210Z,4.93
2024-02-24T23:59:40.240Z,4.82
